sensor_id;sensor_type;location;lat;lon;timestamp;pressure;altitude;pressure_sealevel;temperature;humidity
60228;BME280;46091;46.512;6.626;2023-04-27T05:50:40;96954.81;;;14.74;58.55
60228;BME280;46091;46.512;6.626;2023-04-27T05:52:43;96960.47;;;14.84;58.65
60228;BME280;46091;46.512;6.626;2023-04-27T05:54:46;96957.75;;;14.91;58.25
60228;BME280;46091;46.512;6.626;2023-04-27T05:56:49;96963.66;;;14.93;58.20
60228;BME280;46091;46.512;6.626;2023-04-27T05:58:52;96966.09;;;14.95;58.01
60228;BME280;46091;46.512;6.626;2023-04-27T06:00:55;96967.78;;;14.96;58.09
60228;BME280;46091;46.512;6.626;2023-04-27T06:02:58;96970.81;;;14.99;58.01
60228;BME280;46091;46.512;6.626;2023-04-27T06:05:01;96967.25;;;15.05;57.80
60228;BME280;46091;46.512;6.626;2023-04-27T06:07:08;96974.41;;;15.11;57.74
60228;BME280;46091;46.512;6.626;2023-04-27T06:09:14;96977.38;;;15.22;57.61
60228;BME280;46091;46.512;6.626;2023-04-27T06:11:17;96983.44;;;15.29;57.57
60228;BME280;46091;46.512;6.626;2023-04-27T06:13:20;96984.44;;;15.34;57.50
60228;BME280;46091;46.512;6.626;2023-04-27T06:15:23;96996.06;;;15.40;57.10
60228;BME280;46091;46.512;6.626;2023-04-27T06:17:26;96988.84;;;15.47;56.97
60228;BME280;46091;46.512;6.626;2023-04-27T06:19:29;96986.34;;;15.52;57.10
60228;BME280;46091;46.512;6.626;2023-04-27T06:21:34;96989.81;;;15.53;56.98
60228;BME280;46091;46.512;6.626;2023-04-27T06:23:39;96993.66;;;15.57;56.82
60228;BME280;46091;46.512;6.626;2023-04-27T06:25:41;96999.97;;;15.62;56.81
60228;BME280;46091;46.512;6.626;2023-04-27T06:27:44;96989.72;;;15.66;56.95
60228;BME280;46091;46.512;6.626;2023-04-27T06:29:47;96990.44;;;15.73;56.53
60228;BME280;46091;46.512;6.626;2023-04-27T06:31:50;96989.81;;;15.78;56.41
60228;BME280;46091;46.512;6.626;2023-04-27T06:33:53;96990.53;;;15.85;56.64
60228;BME280;46091;46.512;6.626;2023-04-27T06:35:56;96991.75;;;15.89;56.47
60228;BME280;46091;46.512;6.626;2023-04-27T06:37:59;96988.78;;;15.97;56.29
60228;BME280;46091;46.512;6.626;2023-04-27T06:40:05;96987.06;;;16.02;56.34
60228;BME280;46091;46.512;6.626;2023-04-27T06:42:08;96984.94;;;16.11;56.21
60228;BME280;46091;46.512;6.626;2023-04-27T06:44:11;96985.28;;;16.15;55.85
60228;BME280;46091;46.512;6.626;2023-04-27T06:46:14;96983.19;;;16.17;55.84
60228;BME280;46091;46.512;6.626;2023-04-27T06:48:17;96987.28;;;16.19;56.01
60228;BME280;46091;46.512;6.626;2023-04-27T06:50:21;96985.22;;;16.21;55.93
60228;BME280;46091;46.512;6.626;2023-04-27T06:52:23;96975.13;;;16.23;55.80
60228;BME280;46091;46.512;6.626;2023-04-27T06:54:26;96975.50;;;16.27;55.54
60228;BME280;46091;46.512;6.626;2023-04-27T06:56:33;96981.41;;;16.29;55.53
60228;BME280;46091;46.512;6.626;2023-04-27T06:58:36;96975.25;;;16.28;55.49
60228;BME280;46091;46.512;6.626;2023-04-27T07:00:39;96971.44;;;16.24;55.34
60228;BME280;46091;46.512;6.626;2023-04-27T07:02:43;96974.31;;;16.23;55.34
60228;BME280;46091;46.512;6.626;2023-04-27T07:04:46;96981.88;;;16.26;55.26
60228;BME280;46091;46.512;6.626;2023-04-27T07:06:49;96986.50;;;16.30;55.26
60228;BME280;46091;46.512;6.626;2023-04-27T07:08:52;96985.50;;;16.32;55.01
60228;BME280;46091;46.512;6.626;2023-04-27T07:10:55;96981.19;;;16.30;55.00
60228;BME280;46091;46.512;6.626;2023-04-27T07:13:01;96989.19;;;16.30;54.99
60228;BME280;46091;46.512;6.626;2023-04-27T07:15:05;96992.47;;;16.33;55.01
60228;BME280;46091;46.512;6.626;2023-04-27T07:17:08;96986.50;;;16.30;54.74
60228;BME280;46091;46.512;6.626;2023-04-27T07:19:11;96992.75;;;16.24;54.89
60228;BME280;46091;46.512;6.626;2023-04-27T07:21:15;96990.31;;;16.23;54.76
60228;BME280;46091;46.512;6.626;2023-04-27T07:23:17;96988.00;;;16.26;54.83
60228;BME280;46091;46.512;6.626;2023-04-27T07:25:21;96988.16;;;16.32;54.54
60228;BME280;46091;46.512;6.626;2023-04-27T07:27:26;96986.50;;;16.30;54.39
60228;BME280;46091;46.512;6.626;2023-04-27T07:29:31;96987.44;;;16.24;54.44
60228;BME280;46091;46.512;6.626;2023-04-27T07:31:34;96975.94;;;16.24;54.56
60228;BME280;46091;46.512;6.626;2023-04-27T07:33:37;96973.06;;;16.25;54.56
60228;BME280;46091;46.512;6.626;2023-04-27T07:35:40;96976.53;;;16.26;54.27
60228;BME280;46091;46.512;6.626;2023-04-27T07:37:43;96965.28;;;16.24;54.07
60228;BME280;46091;46.512;6.626;2023-04-27T07:39:47;96970.25;;;16.20;54.16
60228;BME280;46091;46.512;6.626;2023-04-27T07:41:50;96965.34;;;16.17;54.21
60228;BME280;46091;46.512;6.626;2023-04-27T07:43:53;96960.81;;;16.18;53.97
60228;BME280;46091;46.512;6.626;2023-04-27T07:45:59;96960.00;;;16.17;54.05
60228;BME280;46091;46.512;6.626;2023-04-27T07:48:02;96965.34;;;16.17;53.85
60228;BME280;46091;46.512;6.626;2023-04-27T07:50:06;96960.81;;;16.18;53.88
60228;BME280;46091;46.512;6.626;2023-04-27T07:52:10;96961.63;;;16.18;53.66
60228;BME280;46091;46.512;6.626;2023-04-27T07:54:13;96971.88;;;16.21;53.59
60228;BME280;46091;46.512;6.626;2023-04-27T07:56:16;96966.66;;;16.26;53.44
60228;BME280;46091;46.512;6.626;2023-04-27T07:58:19;96967.03;;;16.30;53.37
60228;BME280;46091;46.512;6.626;2023-04-27T08:00:22;96961.50;;;16.32;53.30
60228;BME280;46091;46.512;6.626;2023-04-27T08:02:27;96963.13;;;16.33;53.28
60228;BME280;46091;46.512;6.626;2023-04-27T08:04:37;96967.41;;;16.34;53.08
60228;BME280;46091;46.512;6.626;2023-04-27T08:06:40;96969.03;;;16.35;53.00
60228;BME280;46091;46.512;6.626;2023-04-27T08:08:44;96970.31;;;16.32;53.02
60228;BME280;46091;46.512;6.626;2023-04-27T08:10:47;96967.03;;;16.30;53.05
60228;BME280;46091;46.512;6.626;2023-04-27T08:12:50;96972.81;;;16.27;52.91
60228;BME280;46091;46.512;6.626;2023-04-27T08:14:53;96964.81;;;16.27;52.77
60228;BME280;46091;46.512;6.626;2023-04-27T08:16:56;96968.75;;;16.24;52.83
60228;BME280;46091;46.512;6.626;2023-04-27T08:19:00;96971.44;;;16.24;52.89
60228;BME280;46091;46.512;6.626;2023-04-27T08:21:04;96973.06;;;16.25;52.67
60228;BME280;46091;46.512;6.626;2023-04-27T08:23:06;96957.84;;;16.26;52.64
60228;BME280;46091;46.512;6.626;2023-04-27T08:25:09;96956.59;;;16.28;52.59
60228;BME280;46091;46.512;6.626;2023-04-27T08:27:12;96951.84;;;16.30;52.36
60228;BME280;46091;46.512;6.626;2023-04-27T08:29:16;96953.25;;;16.33;52.27
60228;BME280;46091;46.512;6.626;2023-04-27T08:31:28;96952.81;;;16.36;52.15
60228;BME280;46091;46.512;6.626;2023-04-27T08:33:31;96958.50;;;16.40;52.16
60228;BME280;46091;46.512;6.626;2023-04-27T08:35:35;96949.44;;;16.41;52.14
60228;BME280;46091;46.512;6.626;2023-04-27T08:37:38;96951.69;;;16.44;51.93
60228;BME280;46091;46.512;6.626;2023-04-27T08:39:42;96956.56;;;16.47;51.92
60228;BME280;46091;46.512;6.626;2023-04-27T08:41:45;96949.72;;;16.51;51.88
60228;BME280;46091;46.512;6.626;2023-04-27T08:43:50;96952.97;;;16.53;51.68
60228;BME280;46091;46.512;6.626;2023-04-27T08:45:54;96953.19;;;16.51;51.60
60228;BME280;46091;46.512;6.626;2023-04-27T08:47:57;96954.63;;;16.54;51.50
60228;BME280;46091;46.512;6.626;2023-04-27T08:50:00;96946.75;;;16.59;51.35
60228;BME280;46091;46.512;6.626;2023-04-27T08:52:09;96954.88;;;16.64;51.14
60228;BME280;46091;46.512;6.626;2023-04-27T08:54:13;96957.72;;;16.69;51.37
60228;BME280;46091;46.512;6.626;2023-04-27T08:56:16;96955.16;;;16.74;50.92
60228;BME280;46091;46.512;6.626;2023-04-27T08:58:19;96954.25;;;16.80;50.57
60228;BME280;46091;46.512;6.626;2023-04-27T09:00:23;96945.78;;;16.83;50.75
60228;BME280;46091;46.512;6.626;2023-04-27T09:02:27;96949.84;;;16.86;50.62
60228;BME280;46091;46.512;6.626;2023-04-27T09:04:36;96952.31;;;16.87;50.52
60228;BME280;46091;46.512;6.626;2023-04-27T09:06:40;96951.28;;;16.88;50.45
60228;BME280;46091;46.512;6.626;2023-04-27T09:08:46;96944.31;;;16.87;50.40
60228;BME280;46091;46.512;6.626;2023-04-27T09:10:50;96943.47;;;16.87;50.30
60228;BME280;46091;46.512;6.626;2023-04-27T09:12:55;96943.47;;;16.87;50.05
60228;BME280;46091;46.512;6.626;2023-04-27T09:15:00;96947.56;;;16.90;49.99
60228;BME280;46091;46.512;6.626;2023-04-27T09:17:04;96945.94;;;16.88;49.78
60228;BME280;46091;46.512;6.626;2023-04-27T09:19:07;96949.66;;;16.87;49.81
60228;BME280;46091;46.512;6.626;2023-04-27T09:21:10;96946.13;;;16.87;49.55
60228;BME280;46091;46.512;6.626;2023-04-27T09:23:25;96947.56;;;16.90;49.73
60228;BME280;46091;46.512;6.626;2023-04-27T09:25:31;96947.09;;;16.93;49.56
60228;BME280;46091;46.512;6.626;2023-04-27T09:27:36;96948.72;;;16.94;49.32
60228;BME280;46091;46.512;6.626;2023-04-27T09:29:39;96945.00;;;16.95;49.20
60228;BME280;46091;46.512;6.626;2023-04-27T09:31:43;96938.50;;;16.91;49.12
60228;BME280;46091;46.512;6.626;2023-04-27T09:33:53;96949.75;;;16.93;48.88
60228;BME280;46091;46.512;6.626;2023-04-27T09:35:58;96945.47;;;16.92;48.94
60228;BME280;46091;46.512;6.626;2023-04-27T09:38:01;96933.50;;;16.94;48.87
60228;BME280;46091;46.512;6.626;2023-04-27T09:40:06;96924.78;;;16.99;48.55
60228;BME280;46091;46.512;6.626;2023-04-27T09:42:11;96930.50;;;17.02;48.50
60228;BME280;46091;46.512;6.626;2023-04-27T09:44:15;96926.31;;;17.06;48.31
60228;BME280;46091;46.512;6.626;2023-04-27T09:46:18;96925.03;;;17.09;48.18
60228;BME280;46091;46.512;6.626;2023-04-27T09:48:23;96923.78;;;17.11;47.98
60228;BME280;46091;46.512;6.626;2023-04-27T09:50:26;96930.28;;;17.15;47.95
60228;BME280;46091;46.512;6.626;2023-04-27T09:52:30;96941.78;;;17.16;48.09
60228;BME280;46091;46.512;6.626;2023-04-27T09:54:34;96938.06;;;17.17;48.07
60228;BME280;46091;46.512;6.626;2023-04-27T09:56:45;96935.16;;;17.18;47.87
60228;BME280;46091;46.512;6.626;2023-04-27T09:59:12;96938.78;;;17.24;47.64
60228;BME280;46091;46.512;6.626;2023-04-27T10:01:23;96923.31;;;17.26;47.40
60228;BME280;46091;46.512;6.626;2023-04-27T10:03:30;96914.84;;;17.29;47.61
60228;BME280;46091;46.512;6.626;2023-04-27T10:05:49;96918.09;;;17.31;47.49
60228;BME280;46091;46.512;6.626;2023-04-27T10:07:59;96924.03;;;17.33;47.40
60228;BME280;46091;46.512;6.626;2023-04-27T10:10:02;96920.31;;;17.34;47.41
60228;BME280;46091;46.512;6.626;2023-04-27T10:12:14;96914.97;;;17.34;47.32
60228;BME280;46091;46.512;6.626;2023-04-27T10:14:19;96914.97;;;17.34;47.24
60228;BME280;46091;46.512;6.626;2023-04-27T10:16:23;96908.00;;;17.33;47.37
60228;BME280;46091;46.512;6.626;2023-04-27T10:18:28;96907.63;;;17.30;47.27
60228;BME280;46091;46.512;6.626;2023-04-27T10:20:33;96908.91;;;17.27;47.36
60228;BME280;46091;46.512;6.626;2023-04-27T10:22:38;96913.22;;;17.28;47.33
60228;BME280;46091;46.512;6.626;2023-04-27T10:24:41;96907.88;;;17.28;47.21
60228;BME280;46091;46.512;6.626;2023-04-27T10:26:46;96904.72;;;17.31;47.14
60228;BME280;46091;46.512;6.626;2023-04-27T10:29:04;96904.72;;;17.31;47.10
60228;BME280;46091;46.512;6.626;2023-04-27T10:31:10;96908.44;;;17.30;47.14
60228;BME280;46091;46.512;6.626;2023-04-27T10:33:15;96904.97;;;17.30;46.81
60228;BME280;46091;46.512;6.626;2023-04-27T10:35:20;96911.09;;;17.30;46.90
60228;BME280;46091;46.512;6.626;2023-04-27T10:37:23;96911.94;;;17.31;46.93
60228;BME280;46091;46.512;6.626;2023-04-27T10:39:41;96905.19;;;17.28;46.70
60228;BME280;46091;46.512;6.626;2023-04-27T10:41:51;96905.78;;;17.30;46.78
60228;BME280;46091;46.512;6.626;2023-04-27T10:43:54;96899.84;;;17.28;46.81
60228;BME280;46091;46.512;6.626;2023-04-27T10:46:06;96905.44;;;17.27;46.71
60228;BME280;46091;46.512;6.626;2023-04-27T10:48:13;96901.38;;;17.24;46.66
60228;BME280;46091;46.512;6.626;2023-04-27T10:50:16;96901.94;;;17.26;46.49
60228;BME280;46091;46.512;6.626;2023-04-27T10:52:19;96896.03;;;17.24;46.48
60228;BME280;46091;46.512;6.626;2023-04-27T10:54:25;96900.91;;;17.27;46.41
60228;BME280;46091;46.512;6.626;2023-04-27T10:56:28;96889.75;;;17.30;46.32
60228;BME280;46091;46.512;6.626;2023-04-27T10:58:31;96893.47;;;17.29;46.38
60228;BME280;46091;46.512;6.626;2023-04-27T11:00:50;96887.06;;;17.30;46.43
60228;BME280;46091;46.512;6.626;2023-04-27T11:02:53;96892.97;;;17.32;46.30
60228;BME280;46091;46.512;6.626;2023-04-27T11:04:58;96897.06;;;17.35;46.44
60228;BME280;46091;46.512;6.626;2023-04-27T11:07:01;96886.72;;;17.38;46.28
60228;BME280;46091;46.512;6.626;2023-04-27T11:09:05;96889.16;;;17.40;46.15
60228;BME280;46091;46.512;6.626;2023-04-27T11:11:13;96896.94;;;17.41;46.10
60228;BME280;46091;46.512;6.626;2023-04-27T11:13:19;96889.16;;;17.40;46.12
60228;BME280;46091;46.512;6.626;2023-04-27T11:15:22;96894.25;;;17.41;46.05
60228;BME280;46091;46.512;6.626;2023-04-27T11:17:28;96891.16;;;17.44;45.85
60228;BME280;46091;46.512;6.626;2023-04-27T11:19:31;96883.69;;;17.46;46.02
60228;BME280;46091;46.512;6.626;2023-04-27T11:21:36;96890.19;;;17.51;45.81
60228;BME280;46091;46.512;6.626;2023-04-27T11:23:39;96880.88;;;17.53;45.73
60228;BME280;46091;46.512;6.626;2023-04-27T11:25:42;96869.94;;;17.55;45.79
60228;BME280;46091;46.512;6.626;2023-04-27T11:27:46;96871.38;;;17.57;45.74
60228;BME280;46091;46.512;6.626;2023-04-27T11:29:49;96870.31;;;17.58;45.66
60228;BME280;46091;46.512;6.626;2023-04-27T11:31:52;96871.13;;;17.59;45.58
60228;BME280;46091;46.512;6.626;2023-04-27T11:33:55;96870.06;;;17.60;45.68
60228;BME280;46091;46.512;6.626;2023-04-27T11:35:58;96868.53;;;17.64;45.81
60228;BME280;46091;46.512;6.626;2023-04-27T11:38:03;96867.84;;;17.68;45.84
60228;BME280;46091;46.512;6.626;2023-04-27T11:40:06;96874.13;;;17.74;45.47
60228;BME280;46091;46.512;6.626;2023-04-27T11:42:17;96868.66;;;17.81;45.60
60228;BME280;46091;46.512;6.626;2023-04-27T11:44:24;96866.91;;;17.86;45.31
60228;BME280;46091;46.512;6.626;2023-04-27T11:46:28;96863.97;;;17.88;45.38
60228;BME280;46091;46.512;6.626;2023-04-27T11:48:31;96859.00;;;17.91;45.19
60228;BME280;46091;46.512;6.626;2023-04-27T11:50:34;96860.69;;;17.97;45.22
60228;BME280;46091;46.512;6.626;2023-04-27T11:52:38;96868.22;;;18.00;45.19
60228;BME280;46091;46.512;6.626;2023-04-27T11:54:50;96864.06;;;18.04;45.09
60228;BME280;46091;46.512;6.626;2023-04-27T11:57:03;96863.56;;;18.08;45.04
60228;BME280;46091;46.512;6.626;2023-04-27T11:59:17;96865.53;;;18.12;45.11
60228;BME280;46091;46.512;6.626;2023-04-27T12:01:21;96858.41;;;18.18;45.08
60228;BME280;46091;46.512;6.626;2023-04-27T12:03:39;96855.81;;;18.23;45.01
60228;BME280;46091;46.512;6.626;2023-04-27T12:05:46;96856.16;;;18.26;44.83
60228;BME280;46091;46.512;6.626;2023-04-27T12:07:51;96858.69;;;18.33;44.79
60228;BME280;46091;46.512;6.626;2023-04-27T12:09:55;96860.09;;;18.36;44.73
60228;BME280;46091;46.512;6.626;2023-04-27T12:12:01;96850.19;;;18.36;44.72
60228;BME280;46091;46.512;6.626;2023-04-27T12:14:04;96854.47;;;18.37;44.71
60228;BME280;46091;46.512;6.626;2023-04-27T12:16:07;96852.63;;;18.38;44.65
60228;BME280;46091;46.512;6.626;2023-04-27T12:18:10;96854.47;;;18.37;44.58
60228;BME280;46091;46.512;6.626;2023-04-27T12:20:13;96851.31;;;18.40;44.65
60228;BME280;46091;46.512;6.626;2023-04-27T12:22:16;96849.44;;;18.41;44.58
60228;BME280;46091;46.512;6.626;2023-04-27T12:24:19;96857.25;;;18.42;44.43
60228;BME280;46091;46.512;6.626;2023-04-27T12:26:23;96847.09;;;18.44;44.39
60228;BME280;46091;46.512;6.626;2023-04-27T12:28:27;96861.88;;;18.47;44.31
60228;BME280;46091;46.512;6.626;2023-04-27T12:30:30;96859.78;;;18.49;44.31
60228;BME280;46091;46.512;6.626;2023-04-27T12:32:33;96857.97;;;18.54;44.21
60228;BME280;46091;46.512;6.626;2023-04-27T12:34:36;96853.44;;;18.55;44.12
60228;BME280;46091;46.512;6.626;2023-04-27T12:36:43;96854.25;;;18.55;44.14
60228;BME280;46091;46.512;6.626;2023-04-27T12:38:45;96848.66;;;18.57;43.97
60228;BME280;46091;46.512;6.626;2023-04-27T12:40:49;96854.00;;;18.57;44.12
60228;BME280;46091;46.512;6.626;2023-04-27T12:42:53;96855.31;;;18.54;43.95
60228;BME280;46091;46.512;6.626;2023-04-27T12:44:57;96845.91;;;18.52;44.12
60228;BME280;46091;46.512;6.626;2023-04-27T12:47:00;96850.69;;;18.50;43.88
60228;BME280;46091;46.512;6.626;2023-04-27T12:49:03;96853.59;;;18.48;43.94
60228;BME280;46091;46.512;6.626;2023-04-27T12:51:07;96851.19;;;18.47;43.79
60228;BME280;46091;46.512;6.626;2023-04-27T12:53:10;96850.38;;;18.46;43.74
60228;BME280;46091;46.512;6.626;2023-04-27T12:55:12;96850.38;;;18.46;43.84
60228;BME280;46091;46.512;6.626;2023-04-27T12:57:32;96840.47;;;18.47;43.87
60228;BME280;46091;46.512;6.626;2023-04-27T12:59:37;96837.88;;;18.52;43.62
60228;BME280;46091;46.512;6.626;2023-04-27T13:01:40;96848.56;;;18.52;43.48
60228;BME280;46091;46.512;6.626;2023-04-27T13:03:46;96841.34;;;18.52;43.70
60228;BME280;46091;46.512;6.626;2023-04-27T13:05:49;96845.66;;;18.53;43.60
60228;BME280;46091;46.512;6.626;2023-04-27T13:07:52;96837.72;;;18.58;43.54
60228;BME280;46091;46.512;6.626;2023-04-27T13:09:55;96831.88;;;18.61;43.45
60228;BME280;46091;46.512;6.626;2023-04-27T13:11:58;96833.50;;;18.62;43.45
60228;BME280;46091;46.512;6.626;2023-04-27T13:14:02;96830.81;;;18.62;43.22
60228;BME280;46091;46.512;6.626;2023-04-27T13:16:07;96833.84;;;18.66;43.42
60228;BME280;46091;46.512;6.626;2023-04-27T13:18:10;96831.72;;;18.68;43.19
60228;BME280;46091;46.512;6.626;2023-04-27T13:20:13;96826.72;;;18.72;43.24
60228;BME280;46091;46.512;6.626;2023-04-27T13:22:17;96826.78;;;18.77;42.95
60228;BME280;46091;46.512;6.626;2023-04-27T13:24:21;96835.16;;;18.80;42.96
60228;BME280;46091;46.512;6.626;2023-04-27T13:26:25;96835.47;;;18.84;42.91
60228;BME280;46091;46.512;6.626;2023-04-27T13:28:30;96829.63;;;18.87;42.69
60228;BME280;46091;46.512;6.626;2023-04-27T13:30:33;96823.56;;;18.92;42.65
60228;BME280;46091;46.512;6.626;2023-04-27T13:32:37;96826.28;;;18.97;42.60
60228;BME280;46091;46.512;6.626;2023-04-27T13:34:40;96827.66;;;18.99;42.90
60228;BME280;46091;46.512;6.626;2023-04-27T13:36:43;96825.53;;;19.01;42.40
60228;BME280;46091;46.512;6.626;2023-04-27T13:38:49;96814.91;;;19.06;42.52
60228;BME280;46091;46.512;6.626;2023-04-27T13:40:52;96824.63;;;19.12;42.19
60228;BME280;46091;46.512;6.626;2023-04-27T13:42:55;96816.75;;;19.23;42.05
60228;BME280;46091;46.512;6.626;2023-04-27T13:44:59;96823.47;;;19.25;42.19
60228;BME280;46091;46.512;6.626;2023-04-27T13:47:02;96818.34;;;19.24;41.96
60228;BME280;46091;46.512;6.626;2023-04-27T13:49:07;96821.28;;;19.22;41.96
60228;BME280;46091;46.512;6.626;2023-04-27T13:51:11;96815.13;;;19.22;41.95
60228;BME280;46091;46.512;6.626;2023-04-27T13:53:14;96811.13;;;19.24;41.56
60228;BME280;46091;46.512;6.626;2023-04-27T13:55:17;96808.44;;;19.24;41.59
60228;BME280;46091;46.512;6.626;2023-04-27T13:57:20;96816.25;;;19.26;41.53
60228;BME280;46091;46.512;6.626;2023-04-27T13:59:23;96813.00;;;19.24;41.21
60228;BME280;46091;46.512;6.626;2023-04-27T14:01:27;96813.00;;;19.24;41.13
60228;BME280;46091;46.512;6.626;2023-04-27T14:03:30;96813.00;;;19.24;40.88
60228;BME280;46091;46.512;6.626;2023-04-27T14:05:35;96812.53;;;19.27;40.98
60228;BME280;46091;46.512;6.626;2023-04-27T14:07:38;96804.47;;;19.27;40.76
60228;BME280;46091;46.512;6.626;2023-04-27T14:09:42;96803.69;;;19.26;40.43
60228;BME280;46091;46.512;6.626;2023-04-27T14:11:45;96810.41;;;19.29;40.51
60228;BME280;46091;46.512;6.626;2023-04-27T14:13:57;96802.63;;;19.27;40.18
60228;BME280;46091;46.512;6.626;2023-04-27T14:16:01;96812.53;;;19.27;39.97
60228;BME280;46091;46.512;6.626;2023-04-27T14:18:06;96812.53;;;19.27;40.00
60228;BME280;46091;46.512;6.626;2023-04-27T14:20:10;96799.34;;;19.25;39.78
60228;BME280;46091;46.512;6.626;2023-04-27T14:22:14;96801.47;;;19.23;39.66
60228;BME280;46091;46.512;6.626;2023-04-27T14:24:17;96794.25;;;19.24;39.67
60228;BME280;46091;46.512;6.626;2023-04-27T14:26:21;96801.34;;;19.35;39.37
60228;BME280;46091;46.512;6.626;2023-04-27T14:28:24;96794.50;;;19.44;39.34
60228;BME280;46091;46.512;6.626;2023-04-27T14:30:31;96787.59;;;19.48;38.92
60228;BME280;46091;46.512;6.626;2023-04-27T14:32:34;96798.31;;;19.48;39.02
60228;BME280;46091;46.512;6.626;2023-04-27T14:34:38;96791.66;;;19.51;38.72
60228;BME280;46091;46.512;6.626;2023-04-27T14:36:41;96802.38;;;19.51;38.92
60228;BME280;46091;46.512;6.626;2023-04-27T14:38:46;96802.69;;;19.54;38.41
60228;BME280;46091;46.512;6.626;2023-04-27T14:40:49;96796.03;;;19.57;38.51
60228;BME280;46091;46.512;6.626;2023-04-27T14:42:52;96797.91;;;19.56;38.33
60228;BME280;46091;46.512;6.626;2023-04-27T14:44:55;96800.06;;;19.59;38.11
60228;BME280;46091;46.512;6.626;2023-04-27T14:46:57;96791.81;;;19.61;38.16
60228;BME280;46091;46.512;6.626;2023-04-27T14:49:00;96788.38;;;19.65;38.08
60228;BME280;46091;46.512;6.626;2023-04-27T14:51:04;96798.56;;;19.68;38.07
60228;BME280;46091;46.512;6.626;2023-04-27T14:53:07;96802.41;;;19.72;37.93
60228;BME280;46091;46.512;6.626;2023-04-27T14:55:11;96793.84;;;19.75;37.86
60228;BME280;46091;46.512;6.626;2023-04-27T14:57:15;96798.44;;;19.80;37.82
60228;BME280;46091;46.512;6.626;2023-04-27T14:59:18;96788.59;;;19.86;37.76
60228;BME280;46091;46.512;6.626;2023-04-27T15:01:22;96794.78;;;19.86;37.63
60228;BME280;46091;46.512;6.626;2023-04-27T15:03:25;96792.63;;;19.88;37.70
60228;BME280;46091;46.512;6.626;2023-04-27T15:05:28;96787.00;;;19.90;37.45
60228;BME280;46091;46.512;6.626;2023-04-27T15:07:32;96789.69;;;19.90;37.30
60228;BME280;46091;46.512;6.626;2023-04-27T15:09:35;96795.84;;;19.85;37.32
60228;BME280;46091;46.512;6.626;2023-04-27T15:11:39;96791.84;;;19.88;37.55
60228;BME280;46091;46.512;6.626;2023-04-27T15:13:42;96794.50;;;19.88;37.73
60228;BME280;46091;46.512;6.626;2023-04-27T15:15:45;96795.56;;;19.87;37.71
60228;BME280;46091;46.512;6.626;2023-04-27T15:17:48;96801.50;;;19.89;37.63
60228;BME280;46091;46.512;6.626;2023-04-27T15:19:51;96798.50;;;19.85;37.86
60228;BME280;46091;46.512;6.626;2023-04-27T15:21:53;96800.66;;;19.83;38.48
60228;BME280;46091;46.512;6.626;2023-04-27T15:23:57;96801.63;;;19.77;38.37
60228;BME280;46091;46.512;6.626;2023-04-27T15:26:00;96800.53;;;19.73;38.74
60228;BME280;46091;46.512;6.626;2023-04-27T15:28:08;96796.97;;;19.67;38.76
60228;BME280;46091;46.512;6.626;2023-04-27T15:30:13;96795.84;;;19.63;39.09
60228;BME280;46091;46.512;6.626;2023-04-27T15:32:16;96796.84;;;19.57;38.85
60228;BME280;46091;46.512;6.626;2023-04-27T15:34:19;96789.03;;;19.56;38.85
60228;BME280;46091;46.512;6.626;2023-04-27T15:36:23;96787.91;;;19.52;39.03
60228;BME280;46091;46.512;6.626;2023-04-27T15:38:27;96787.91;;;19.52;39.06
60228;BME280;46091;46.512;6.626;2023-04-27T15:40:32;96790.84;;;19.50;38.90
60228;BME280;46091;46.512;6.626;2023-04-27T15:42:36;96796.19;;;19.50;38.98
60228;BME280;46091;46.512;6.626;2023-04-27T15:44:40;96788.16;;;19.50;38.98
60228;BME280;46091;46.512;6.626;2023-04-27T15:46:43;96780.59;;;19.47;38.87
60228;BME280;46091;46.512;6.626;2023-04-27T15:48:46;96781.09;;;19.44;38.89
60228;BME280;46091;46.512;6.626;2023-04-27T15:50:50;96778.69;;;19.42;38.89
60228;BME280;46091;46.512;6.626;2023-04-27T15:52:53;96764.97;;;19.39;38.61
60228;BME280;46091;46.512;6.626;2023-04-27T15:54:56;96766.50;;;19.35;38.85
60228;BME280;46091;46.512;6.626;2023-04-27T15:56:59;96766.50;;;19.35;38.55
60228;BME280;46091;46.512;6.626;2023-04-27T15:59:04;96764.63;;;19.35;38.47
60228;BME280;46091;46.512;6.626;2023-04-27T16:01:09;96760.09;;;19.36;38.75
60228;BME280;46091;46.512;6.626;2023-04-27T16:03:12;96761.16;;;19.35;38.51
60228;BME280;46091;46.512;6.626;2023-04-27T16:05:23;96760.34;;;19.34;38.41
60228;BME280;46091;46.512;6.626;2023-04-27T16:07:26;96764.63;;;19.35;38.45
60228;BME280;46091;46.512;6.626;2023-04-27T16:09:29;96755.78;;;19.35;38.53
60228;BME280;46091;46.512;6.626;2023-04-27T16:11:32;96758.47;;;19.35;38.57
60228;BME280;46091;46.512;6.626;2023-04-27T16:13:35;96759.06;;;19.37;38.50
60228;BME280;46091;46.512;6.626;2023-04-27T16:15:38;96752.03;;;19.36;38.41
60228;BME280;46091;46.512;6.626;2023-04-27T16:17:44;96746.69;;;19.36;38.39
60228;BME280;46091;46.512;6.626;2023-04-27T16:19:48;96750.50;;;19.40;38.43
60228;BME280;46091;46.512;6.626;2023-04-27T16:21:51;96749.47;;;19.46;38.21
60228;BME280;46091;46.512;6.626;2023-04-27T16:23:54;96752.16;;;19.46;38.38
60228;BME280;46091;46.512;6.626;2023-04-27T16:25:57;96750.00;;;19.43;38.45
60228;BME280;46091;46.512;6.626;2023-04-27T16:28:00;96740.34;;;19.42;38.47
60228;BME280;46091;46.512;6.626;2023-04-27T16:30:03;96738.72;;;19.41;38.28
60228;BME280;46091;46.512;6.626;2023-04-27T16:32:08;96740.84;;;19.39;38.27
60228;BME280;46091;46.512;6.626;2023-04-27T16:34:13;96734.66;;;19.38;38.29
60228;BME280;46091;46.512;6.626;2023-04-27T16:36:16;96731.78;;;19.45;38.25
60228;BME280;46091;46.512;6.626;2023-04-27T16:38:19;96726.97;;;19.47;37.93
60228;BME280;46091;46.512;6.626;2023-04-27T16:40:22;96739.81;;;19.45;38.27
60228;BME280;46091;46.512;6.626;2023-04-27T16:42:25;96737.16;;;19.45;38.08
60228;BME280;46091;46.512;6.626;2023-04-27T16:44:31;96739.00;;;19.44;38.40
60228;BME280;46091;46.512;6.626;2023-04-27T16:46:34;96741.41;;;19.41;38.28
60228;BME280;46091;46.512;6.626;2023-04-27T16:48:37;96738.41;;;19.37;38.24